createdAt,value
2019-02-26T00:01:50.707Z,74.93
2019-02-26T00:04:24.705Z,74.05
2019-02-26T00:06:54.018Z,74.69
2019-02-26T00:09:24.863Z,75.03
2019-02-26T00:11:53.984Z,75.23
2019-02-26T00:14:24.881Z,74.68
2019-02-26T00:16:53.945Z,75.23
2019-02-26T00:19:23.533Z,76.02
2019-02-26T00:21:54.342Z,76.11
2019-02-26T00:24:23.300Z,75.77
2019-02-26T00:26:53.280Z,76.59
2019-02-26T00:29:23.290Z,76.56
2019-02-26T00:31:56.990Z,77.17
2019-02-26T00:34:24.630Z,77.65
2019-02-26T00:36:53.693Z,77.62
2019-02-26T00:39:25.027Z,77.70
2019-02-26T00:41:55.751Z,77.24
2019-02-26T00:44:27.334Z,77.12
2019-02-26T00:46:57.577Z,77.83
2019-02-26T00:49:28.605Z,78.13
2019-02-26T00:51:57.816Z,78.41
2019-02-26T00:54:29.306Z,78.82
2019-02-26T00:57:03.047Z,78.59
2019-02-26T00:59:30.500Z,78.90
2019-02-26T01:01:59.887Z,78.96
2019-02-26T01:04:29.130Z,78.98
2019-02-26T01:06:59.062Z,78.96
2019-02-26T01:09:29.461Z,79.59
2019-02-26T01:11:59.200Z,80.06
2019-02-26T01:14:28.300Z,80.54
2019-02-26T01:16:57.444Z,80.01
2019-02-26T01:19:26.768Z,80.04
2019-02-26T01:21:55.762Z,80.02
2019-02-26T01:24:25.938Z,79.99
2019-02-26T01:26:56.517Z,79.60
2019-02-26T01:29:27.626Z,79.72
2019-02-26T01:31:56.862Z,79.85
2019-02-26T01:34:26.704Z,79.79
2019-02-26T01:36:56.192Z,79.85
2019-02-26T01:39:25.246Z,80.33
2019-02-26T01:41:56.253Z,79.84
2019-02-26T01:44:28.038Z,79.95
2019-02-26T01:46:57.810Z,80.16
2019-02-26T01:49:28.542Z,80.01
2019-02-26T01:51:57.748Z,79.87
2019-02-26T01:54:28.326Z,79.71
2019-02-26T01:56:57.874Z,79.58
2019-02-26T01:59:26.997Z,79.83
2019-02-26T02:01:56.339Z,79.58
2019-02-26T02:04:25.392Z,80.45
2019-02-26T02:06:56.613Z,80.37
2019-02-26T02:09:25.260Z,80.13
2019-02-26T02:11:57.354Z,80.05
2019-02-26T02:14:25.431Z,80.35
2019-02-26T02:16:54.842Z,80.26
2019-02-26T02:19:25.696Z,80.28
2019-02-26T02:21:56.116Z,80.29
2019-02-26T02:24:26.622Z,80.40
2019-02-26T02:26:58.448Z,80.36
2019-02-26T02:29:28.594Z,80.07
2019-02-26T02:31:59.532Z,81.03
2019-02-26T02:34:29.581Z,80.64
2019-02-26T02:36:59.679Z,81.03
2019-02-26T02:39:29.220Z,80.83
2019-02-26T02:41:58.387Z,80.55
2019-02-26T02:44:27.866Z,80.45
2019-02-26T02:46:58.562Z,80.66
2019-02-26T02:49:29.687Z,80.44
2019-02-26T02:52:01.472Z,80.93
2019-02-26T02:54:29.913Z,81.14
2019-02-26T02:57:00.026Z,80.62
2019-02-26T02:59:31.003Z,80.74
2019-02-26T03:02:01.066Z,81.20
2019-02-26T03:04:31.700Z,80.94
2019-02-26T03:07:03.075Z,81.57
2019-02-26T03:09:37.168Z,81.21
2019-02-26T03:12:03.517Z,81.53
2019-02-26T03:14:38.337Z,81.80
2019-02-26T03:17:08.365Z,82.04
2019-02-26T03:19:40.376Z,81.68
2019-02-26T03:22:09.816Z,81.63
2019-02-26T03:24:39.418Z,81.61
2019-02-26T03:27:08.391Z,82.08
2019-02-26T03:29:37.778Z,82.11
2019-02-26T03:32:06.860Z,82.48
2019-02-26T03:34:36.412Z,82.49
2019-02-26T03:37:08.160Z,82.15
2019-02-26T03:39:36.608Z,82.96
2019-02-26T03:42:05.747Z,82.29
2019-02-26T03:44:34.799Z,83.21
2019-02-26T03:47:05.233Z,83.22
2019-02-26T03:49:34.970Z,83.28
2019-02-26T03:52:03.954Z,83.55
2019-02-26T03:54:33.007Z,83.54
2019-02-26T03:57:02.103Z,83.44
2019-02-26T03:59:31.267Z,83.10
2019-02-26T04:02:01.676Z,83.03
2019-02-26T04:04:31.711Z,83.49
2019-02-26T04:07:04.153Z,83.77
2019-02-26T04:09:32.447Z,83.54
2019-02-26T04:12:01.524Z,83.82
2019-02-26T04:14:31.324Z,83.77
2019-02-26T04:17:01.675Z,83.53
2019-02-26T04:19:31.224Z,83.47
2019-02-26T04:22:26.399Z,84.53
2019-02-26T04:25:00.970Z,83.72
2019-02-26T04:28:10.816Z,83.98
2019-02-26T04:31:14.298Z,84.70
2019-02-26T04:34:12.295Z,84.93
2019-02-26T04:37:21.736Z,84.46
2019-02-26T04:40:19.937Z,84.47
2019-02-26T04:43:57.533Z,84.49
2019-02-26T04:46:57.246Z,84.65
2019-02-26T04:49:28.115Z,84.86
2019-02-26T04:51:57.670Z,84.59
2019-02-26T04:54:30.126Z,84.19
2019-02-26T04:56:58.926Z,84.18
2019-02-26T04:59:29.911Z,84.69
2019-02-26T05:01:59.192Z,84.58
2019-02-26T05:04:30.529Z,84.55
2019-02-26T05:06:59.169Z,84.88
2019-02-26T05:09:30.588Z,84.52
2019-02-26T05:12:00.259Z,84.80
2019-02-26T05:14:29.651Z,84.53
2019-02-26T05:16:58.685Z,84.72
2019-02-26T05:19:27.741Z,84.47
2019-02-26T05:22:01.393Z,85.10
2019-02-26T05:24:30.983Z,85.00
2019-02-26T05:27:00.109Z,84.97
2019-02-26T05:29:29.183Z,85.10
2019-02-26T05:32:00.775Z,85.32
2019-02-26T05:34:29.479Z,85.32
2019-02-26T05:36:59.771Z,84.75
2019-02-26T05:39:29.493Z,85.12
2019-02-26T05:42:01.250Z,85.15
2019-02-26T05:44:30.849Z,85.38
2019-02-26T05:47:01.654Z,84.87
2019-02-26T05:49:32.196Z,85.15
2019-02-26T05:52:04.097Z,85.90
2019-02-26T05:54:33.145Z,85.70
2019-02-26T05:57:04.635Z,86.09
2019-02-26T05:59:33.855Z,86.00
2019-02-26T06:02:02.899Z,85.83
2019-02-26T06:04:35.203Z,85.90
2019-02-26T06:07:04.715Z,86.33
2019-02-26T06:09:33.974Z,86.04
2019-02-26T06:12:03.507Z,85.96
2019-02-26T06:14:33.251Z,85.85
2019-02-26T06:17:07.184Z,85.39
2019-02-26T06:19:45.088Z,85.23
2019-02-26T06:22:17.155Z,85.46
2019-02-26T06:24:54.921Z,85.62
2019-02-26T06:27:24.683Z,85.86
2019-02-26T06:29:55.482Z,85.47
2019-02-26T06:32:27.414Z,85.38
2019-02-26T06:34:55.619Z,85.01
2019-02-26T06:37:25.157Z,85.32
2019-02-26T06:39:55.692Z,85.58
2019-02-26T06:42:25.711Z,85.87
2019-02-26T06:44:55.173Z,85.83
2019-02-26T06:47:26.484Z,86.35
2019-02-26T06:49:55.267Z,85.78
2019-02-26T06:52:24.319Z,85.57
2019-02-26T06:54:55.640Z,86.14
2019-02-26T06:57:24.319Z,85.65
2019-02-26T06:59:56.293Z,86.94
2019-02-26T07:02:28.302Z,86.10
2019-02-26T07:04:55.515Z,85.07
2019-02-26T07:07:24.553Z,84.22
2019-02-26T07:09:57.505Z,84.75
2019-02-26T07:12:26.385Z,84.98
2019-02-26T07:14:57.971Z,85.91
2019-02-26T07:17:29.138Z,85.65
2019-02-26T07:19:58.456Z,85.37
2019-02-26T07:22:28.254Z,85.41
2019-02-26T07:24:57.922Z,85.76
2019-02-26T07:27:28.931Z,85.79
2019-02-26T07:29:58.133Z,86.04
2019-02-26T07:32:27.152Z,86.11
2019-02-26T07:34:58.094Z,86.10
2019-02-26T07:37:28.613Z,86.07
2019-02-26T07:39:57.937Z,85.94
2019-02-26T07:42:27.007Z,85.93
2019-02-26T07:44:56.031Z,86.58
2019-02-26T07:47:26.591Z,86.74
2019-02-26T07:49:58.600Z,86.75
2019-02-26T07:52:28.463Z,86.54
2019-02-26T07:54:57.943Z,86.67
2019-02-26T07:57:27.705Z,87.05
2019-02-26T07:59:56.781Z,86.99
2019-02-26T08:02:27.905Z,87.18
2019-02-26T08:04:57.316Z,86.84
2019-02-26T08:07:28.440Z,86.18
2019-02-26T08:09:57.459Z,85.89
2019-02-26T08:12:26.495Z,85.16
2019-02-26T08:14:55.491Z,85.18
2019-02-26T08:17:25.205Z,85.34
2019-02-26T08:19:54.629Z,85.55
2019-02-26T08:22:24.843Z,84.06
2019-02-26T08:24:56.294Z,81.96
2019-02-26T08:27:28.493Z,81.28
2019-02-26T08:29:59.114Z,81.83
2019-02-26T08:32:30.367Z,82.06
2019-02-26T08:35:00.015Z,82.55
2019-02-26T08:37:29.245Z,82.57
2019-02-26T08:39:58.431Z,81.82
2019-02-26T08:42:27.844Z,81.22
2019-02-26T08:44:58.283Z,81.03
2019-02-26T08:47:27.345Z,80.30
2019-02-26T08:49:58.800Z,79.30
2019-02-26T08:52:29.362Z,79.07
2019-02-26T08:54:59.423Z,78.94
2019-02-26T08:57:28.749Z,75.17
2019-02-26T08:59:58.323Z,64.03
2019-02-26T09:02:27.927Z,55.18
2019-02-26T09:04:59.276Z,51.01
2019-02-26T09:07:29.404Z,44.73
2019-02-26T09:09:59.427Z,43.89
2019-02-26T09:12:29.042Z,43.34
2019-02-26T09:14:58.845Z,42.36
2019-02-26T09:17:32.532Z,40.52
2019-02-26T09:20:09.142Z,38.24
2019-02-26T09:22:32.476Z,39.40
2019-02-26T09:25:02.661Z,38.19
2019-02-26T09:27:35.120Z,38.93
2019-02-26T09:30:03.864Z,37.43
2019-02-26T09:32:34.926Z,35.50
2019-02-26T09:35:06.295Z,36.61
2019-02-26T09:37:36.071Z,36.16
2019-02-26T09:40:05.724Z,35.79
2019-02-26T09:42:34.908Z,35.85
2019-02-26T09:45:04.949Z,35.29
2019-02-26T09:47:35.423Z,34.30
2019-02-26T09:50:05.069Z,35.03
2019-02-26T09:52:34.963Z,33.17
2019-02-26T09:55:04.745Z,32.84
2019-02-26T09:57:34.673Z,32.63
2019-02-26T10:00:04.065Z,32.73
2019-02-26T10:02:33.509Z,31.87
2019-02-26T10:05:02.804Z,31.49
2019-02-26T10:07:35.564Z,31.35
2019-02-26T10:10:05.943Z,31.58
2019-02-26T10:12:36.958Z,32.30
2019-02-26T10:15:06.858Z,33.79
2019-02-26T10:17:38.062Z,31.70
2019-02-26T10:20:09.669Z,32.27
2019-02-26T10:22:40.466Z,34.72
2019-02-26T10:25:10.416Z,32.09
2019-02-26T10:27:41.267Z,31.57
2019-02-26T10:30:14.211Z,32.12
2019-02-26T10:32:46.370Z,31.50
2019-02-26T10:35:19.514Z,30.63
2019-02-26T10:37:49.807Z,31.58
2019-02-26T10:40:19.504Z,31.50
2019-02-26T10:42:48.686Z,31.47
2019-02-26T10:45:19.513Z,33.01
2019-02-26T10:47:49.459Z,32.91
2019-02-26T10:50:22.358Z,30.26
2019-02-26T10:52:52.663Z,31.30
2019-02-26T10:55:24.282Z,32.96
2019-02-26T10:57:53.080Z,34.74
2019-02-26T11:00:25.945Z,34.67
2019-02-26T11:02:56.137Z,35.17
2019-02-26T11:05:26.563Z,34.46
2019-02-26T11:07:59.733Z,32.21
2019-02-26T11:10:28.497Z,33.81
2019-02-26T11:12:59.426Z,32.87
2019-02-26T11:15:31.001Z,33.40
2019-02-26T11:17:59.481Z,32.91
2019-02-26T11:20:30.950Z,33.20
2019-02-26T11:22:59.665Z,32.39
2019-02-26T11:25:28.713Z,32.52
2019-02-26T11:27:57.811Z,30.95
2019-02-26T11:30:29.537Z,30.34
2019-02-26T11:33:02.109Z,30.55
2019-02-26T11:35:29.037Z,31.48
2019-02-26T11:37:58.296Z,30.20
2019-02-26T11:40:30.650Z,30.01
2019-02-26T11:43:00.001Z,30.56
2019-02-26T11:45:29.928Z,31.01
2019-02-26T11:48:01.109Z,30.81
2019-02-26T11:50:30.094Z,30.06
2019-02-26T11:52:59.489Z,30.90
2019-02-26T11:55:31.797Z,32.03
2019-02-26T11:57:59.631Z,30.01
2019-02-26T12:00:37.309Z,31.20
2019-02-26T12:03:06.759Z,30.25
2019-02-26T12:05:38.879Z,29.61
2019-02-26T12:08:07.653Z,30.21
2019-02-26T12:10:37.965Z,29.00
2019-02-26T12:13:07.726Z,29.23
2019-02-26T12:15:39.893Z,28.63
2019-02-26T12:18:10.141Z,28.22
2019-02-26T12:20:40.955Z,29.80
2019-02-26T12:23:11.612Z,31.17
2019-02-26T12:25:41.359Z,29.40
2019-02-26T12:28:11.831Z,28.26
2019-02-26T12:30:43.790Z,27.01
2019-02-26T12:33:14.348Z,28.01
2019-02-26T12:35:43.795Z,27.06
2019-02-26T12:38:20.727Z,27.91
2019-02-26T12:40:47.043Z,26.38
2019-02-26T12:43:17.748Z,27.29
2019-02-26T12:45:46.531Z,25.78
2019-02-26T12:48:19.446Z,26.24
2019-02-26T12:50:46.683Z,26.18
2019-02-26T12:53:18.046Z,26.28
2019-02-26T12:55:47.535Z,26.21
2019-02-26T12:58:18.666Z,26.08
2019-02-26T13:00:47.686Z,26.20
2019-02-26T13:03:19.839Z,26.13
2019-02-26T13:05:49.150Z,26.88
2019-02-26T13:08:19.710Z,26.60
2019-02-26T13:10:51.551Z,25.83
2019-02-26T13:13:20.499Z,27.82
2019-02-26T13:15:50.101Z,27.81
2019-02-26T13:18:19.117Z,26.06
2019-02-26T13:20:52.057Z,24.82
2019-02-26T13:23:20.533Z,25.98
2019-02-26T13:25:49.846Z,25.90
2019-02-26T13:28:18.915Z,26.62
2019-02-26T13:30:47.984Z,27.46
2019-02-26T13:33:18.082Z,26.59
2019-02-26T13:35:52.403Z,25.33
2019-02-26T13:38:24.544Z,25.76
2019-02-26T13:40:50.170Z,25.59
2019-02-26T13:43:19.197Z,25.87
2019-02-26T13:45:48.224Z,26.85
2019-02-26T13:48:17.726Z,26.15
2019-02-26T13:50:46.734Z,25.02
2019-02-26T13:53:15.735Z,26.88
2019-02-26T13:55:45.127Z,26.24
2019-02-26T13:58:14.475Z,29.32
2019-02-26T14:00:43.525Z,27.45
2019-02-26T14:03:12.538Z,27.37
2019-02-26T14:05:41.705Z,28.07
2019-02-26T14:08:10.734Z,28.28
2019-02-26T14:10:39.735Z,29.26
2019-02-26T14:13:08.753Z,28.05
2019-02-26T14:15:38.073Z,29.48
2019-02-26T14:18:07.134Z,29.23
2019-02-26T14:20:36.564Z,28.93
2019-02-26T14:23:05.684Z,29.09
2019-02-26T14:25:34.691Z,29.76
2019-02-26T14:28:03.730Z,29.26
2019-02-26T14:30:32.766Z,30.26
2019-02-26T14:33:02.170Z,29.90
2019-02-26T14:35:31.213Z,29.47
2019-02-26T14:38:00.257Z,30.38
2019-02-26T14:40:29.258Z,30.25
2019-02-26T14:42:58.280Z,30.80
2019-02-26T14:45:27.355Z,30.69
2019-02-26T14:47:56.380Z,32.30
2019-02-26T14:50:27.083Z,32.09
2019-02-26T14:52:56.117Z,30.92
2019-02-26T14:55:25.130Z,33.27
2019-02-26T14:57:54.146Z,31.91
2019-02-26T15:00:25.233Z,33.11
2019-02-26T15:02:55.265Z,33.05
2019-02-26T15:05:24.386Z,33.26
2019-02-26T15:07:53.509Z,34.82
2019-02-26T15:10:22.875Z,36.44
2019-02-26T15:12:52.268Z,35.36
2019-02-26T15:15:21.703Z,35.11
2019-02-26T15:17:50.732Z,33.98
2019-02-26T15:20:19.775Z,36.40
2019-02-26T15:22:48.837Z,36.04
2019-02-26T15:25:20.384Z,35.38
2019-02-26T15:27:49.785Z,37.65
2019-02-26T15:30:18.815Z,38.59
2019-02-26T15:32:48.657Z,37.94
2019-02-26T15:35:17.773Z,39.04
2019-02-26T15:37:46.807Z,38.34
2019-02-26T15:40:15.890Z,38.25
2019-02-26T15:42:44.899Z,40.33
2019-02-26T15:45:16.316Z,40.46
2019-02-26T15:47:45.728Z,38.73
2019-02-26T15:50:15.389Z,40.33
2019-02-26T15:52:44.515Z,41.11
2019-02-26T15:55:15.866Z,39.70
2019-02-26T15:57:44.926Z,40.88
2019-02-26T16:00:17.547Z,40.13
2019-02-26T16:02:47.337Z,41.50
2019-02-26T16:05:16.690Z,42.61
2019-02-26T16:07:45.747Z,41.75
2019-02-26T16:10:15.036Z,40.48
2019-02-26T16:12:44.709Z,42.51
2019-02-26T16:15:14.085Z,42.09
2019-02-26T16:17:46.163Z,42.64
2019-02-26T16:20:17.543Z,44.37
2019-02-26T16:22:47.130Z,46.53
2019-02-26T16:25:16.925Z,46.56
2019-02-26T16:27:46.265Z,46.67
2019-02-26T16:30:19.824Z,48.12
2019-02-26T16:32:49.062Z,48.53
2019-02-26T16:35:18.359Z,47.25
2019-02-26T16:37:47.723Z,47.68
2019-02-26T16:40:17.270Z,47.94
2019-02-26T16:42:46.359Z,47.32
2019-02-26T16:45:17.440Z,48.08
2019-02-26T16:47:48.734Z,48.68
2019-02-26T16:50:19.154Z,49.08
2019-02-26T16:52:48.279Z,49.18
2019-02-26T16:55:17.776Z,49.96
2019-02-26T16:57:47.633Z,50.21
2019-02-26T17:00:18.631Z,50.50
2019-02-26T17:02:49.877Z,50.63
2019-02-26T17:05:18.913Z,52.03
2019-02-26T17:07:48.626Z,51.51
2019-02-26T17:10:18.699Z,51.98
2019-02-26T17:12:53.235Z,53.09
2019-02-26T17:15:26.899Z,53.93
2019-02-26T17:17:55.241Z,54.78
2019-02-26T17:20:26.297Z,55.39
2019-02-26T17:22:55.495Z,56.87
2019-02-26T17:25:27.423Z,57.33
2019-02-26T17:27:55.314Z,57.25
2019-02-26T17:30:24.807Z,56.96
2019-02-26T17:32:54.104Z,57.18
2019-02-26T17:35:23.129Z,57.80
2019-02-26T17:37:52.169Z,58.25
2019-02-26T17:40:21.488Z,58.44
2019-02-26T17:42:51.236Z,58.97
2019-02-26T17:45:20.999Z,59.34
2019-02-26T17:47:50.321Z,59.47
2019-02-26T17:50:21.999Z,59.90
2019-02-26T17:52:51.603Z,60.11
2019-02-26T17:55:20.941Z,60.73
2019-02-26T17:57:50.004Z,60.83
2019-02-26T18:00:20.710Z,60.97
2019-02-26T18:02:49.740Z,61.81
2019-02-26T18:05:18.799Z,62.34
2019-02-26T18:07:47.939Z,62.92
2019-02-26T18:10:17.611Z,62.84
2019-02-26T18:12:46.943Z,62.73
2019-02-26T18:15:17.558Z,62.73
2019-02-26T18:17:47.131Z,62.55
2019-02-26T18:20:17.289Z,62.81
2019-02-26T18:22:46.387Z,63.06
2019-02-26T18:25:16.302Z,63.39
2019-02-26T18:27:46.709Z,63.56
2019-02-26T18:30:20.171Z,63.36
2019-02-26T18:32:50.552Z,63.79
2019-02-26T18:35:20.039Z,63.88
2019-02-26T18:37:49.114Z,64.05
2019-02-26T18:40:18.549Z,64.12
2019-02-26T18:42:47.887Z,64.09
2019-02-26T18:45:19.200Z,64.37
2019-02-26T18:47:48.262Z,64.36
2019-02-26T18:50:17.407Z,64.92
2019-02-26T18:52:46.463Z,64.90
2019-02-26T18:55:16.968Z,64.74
2019-02-26T18:57:46.011Z,65.57
2019-02-26T19:00:17.872Z,65.76
2019-02-26T19:02:47.627Z,66.35
2019-02-26T19:05:20.686Z,66.34
2019-02-26T19:07:47.491Z,65.97
2019-02-26T19:10:19.396Z,65.94
2019-02-26T19:12:47.698Z,65.72
2019-02-26T19:15:17.678Z,66.25
2019-02-26T19:17:48.598Z,66.61
2019-02-26T19:20:19.300Z,66.73
2019-02-26T19:22:48.688Z,67.30
2019-02-26T19:25:18.101Z,67.27
2019-02-26T19:27:47.898Z,67.19
2019-02-26T19:30:18.434Z,66.99
2019-02-26T19:32:48.285Z,67.00
2019-02-26T19:35:17.400Z,67.14
2019-02-26T19:37:47.009Z,67.15
2019-02-26T19:40:18.190Z,67.60
2019-02-26T19:42:47.204Z,68.27
2019-02-26T19:45:16.214Z,68.44
2019-02-26T19:47:45.864Z,68.52
2019-02-26T19:50:15.812Z,68.66
2019-02-26T19:52:46.517Z,69.35
2019-02-26T19:55:18.504Z,69.26
2019-02-26T19:57:47.552Z,69.16
2019-02-26T20:00:19.711Z,68.77
2019-02-26T20:02:47.718Z,69.36
2019-02-26T20:05:17.113Z,69.53
2019-02-26T20:07:46.490Z,69.83
2019-02-26T20:10:16.333Z,70.00
2019-02-26T20:12:45.368Z,70.08
2019-02-26T20:15:15.296Z,69.49
2019-02-26T20:17:44.418Z,69.91
2019-02-26T20:20:14.027Z,69.94
2019-02-26T20:22:43.422Z,69.98
2019-02-26T20:25:14.157Z,70.36
2019-02-26T20:27:44.004Z,70.74
2019-02-26T20:30:14.928Z,71.08
2019-02-26T20:32:44.027Z,70.87
2019-02-26T20:35:13.090Z,70.96
2019-02-26T20:37:42.197Z,70.98
2019-02-26T20:40:15.790Z,71.06
2019-02-26T20:42:44.352Z,70.77
2019-02-26T20:45:17.780Z,70.78
2019-02-26T20:47:46.311Z,71.23
2019-02-26T20:50:19.977Z,71.04
2019-02-26T20:52:46.870Z,71.08
2019-02-26T20:55:19.195Z,71.71
2019-02-26T20:57:48.491Z,71.95
2019-02-26T21:00:18.519Z,71.78
2019-02-26T21:02:47.838Z,72.31
2019-02-26T21:05:17.146Z,72.61
2019-02-26T21:07:46.208Z,73.02
2019-02-26T21:10:15.925Z,73.17
2019-02-26T21:12:45.106Z,73.17
2019-02-26T21:15:15.578Z,72.56
2019-02-26T21:17:44.879Z,72.76
2019-02-26T21:20:14.225Z,72.77
2019-02-26T21:22:43.554Z,72.69
2019-02-26T21:25:12.692Z,73.05
2019-02-26T21:27:41.726Z,72.81
2019-02-26T21:30:12.794Z,72.81
2019-02-26T21:32:42.103Z,73.35
2019-02-26T21:35:11.205Z,73.42
2019-02-26T21:37:40.235Z,73.43
2019-02-26T21:40:09.660Z,73.30
2019-02-26T21:42:38.684Z,73.52
2019-02-26T21:45:08.837Z,73.74
2019-02-26T21:47:37.990Z,73.48
2019-02-26T21:50:08.011Z,73.70
2019-02-26T21:52:37.017Z,73.85
2019-02-26T21:55:06.624Z,74.22
2019-02-26T21:57:35.669Z,73.83
2019-02-26T22:00:05.967Z,74.48
2019-02-26T22:02:35.103Z,74.45
2019-02-26T22:05:05.369Z,74.42
2019-02-26T22:07:34.922Z,74.14
2019-02-26T22:10:07.066Z,74.46
2019-02-26T22:12:35.690Z,74.36
2019-02-26T22:15:04.982Z,74.52
2019-02-26T22:17:34.066Z,74.72
2019-02-26T22:20:03.080Z,74.44
2019-02-26T22:22:32.166Z,74.81
2019-02-26T22:25:09.319Z,74.94
2019-02-26T22:27:33.724Z,74.61
2019-02-26T22:30:03.051Z,75.13
2019-02-26T22:32:32.691Z,74.99
2019-02-26T22:35:03.488Z,75.48
2019-02-26T22:37:32.603Z,75.86
2019-02-26T22:40:01.636Z,75.58
2019-02-26T22:42:31.012Z,75.67
2019-02-26T22:45:00.034Z,75.58
2019-02-26T22:47:29.072Z,75.21
2019-02-26T22:49:58.139Z,75.41
2019-02-26T22:52:30.606Z,75.43
2019-02-26T22:54:57.885Z,75.46
2019-02-26T22:57:27.564Z,75.63
2019-02-26T22:59:58.046Z,75.48
2019-02-26T23:02:27.440Z,76.09
2019-02-26T23:04:57.165Z,76.17
2019-02-26T23:07:26.211Z,76.49
2019-02-26T23:09:55.583Z,76.61
2019-02-26T23:12:24.667Z,76.10
2019-02-26T23:14:54.110Z,76.59
2019-02-26T23:17:24.875Z,76.43
2019-02-26T23:19:55.213Z,76.44
2019-02-26T23:22:24.598Z,76.19
2019-02-26T23:24:53.943Z,76.10
2019-02-26T23:27:23.267Z,76.62
2019-02-26T23:29:52.369Z,76.79
2019-02-26T23:32:22.096Z,76.89
2019-02-26T23:35:05.572Z,77.05
2019-02-26T23:37:35.339Z,76.82
2019-02-26T23:40:05.209Z,77.17
2019-02-26T23:42:34.235Z,77.86
2019-02-26T23:45:03.272Z,77.49
2019-02-26T23:47:34.941Z,77.81
2019-02-26T23:50:03.106Z,78.19
2019-02-26T23:52:32.121Z,77.80
2019-02-26T23:55:01.195Z,78.07
2019-02-26T23:57:30.193Z,78.24
2019-02-26T23:59:59.655Z,78.37
